Map

Track Data

SID SEASON NUMBER BASIN SUBBASIN NAME ISO_TIME NATURE LAT LON WMO_WIND WMO_PRES WMO_AGENCY TRACK_TYPE DIST2LAND LANDFALL IFLAG USA_AGENCY USA_ATCF_ID USA_LAT USA_LON USA_RECORD USA_STATUS USA_WIND USA_PRES USA_SSHS USA_R34_NE USA_R34_SE USA_R34_SW USA_R34_NW USA_R50_NE USA_R50_SE USA_R50_SW USA_R50_NW USA_R64_NE USA_R64_SE USA_R64_SW USA_R64_NW USA_POCI USA_ROCI USA_RMW USA_EYE TOKYO_LAT TOKYO_LON TOKYO_GRADE TOKYO_WIND TOKYO_PRES TOKYO_R50_DIR TOKYO_R50_LONG TOKYO_R50_SHORT TOKYO_R30_DIR TOKYO_R30_LONG TOKYO_R30_SHORT TOKYO_LAND CMA_LAT CMA_LON CMA_CAT CMA_WIND CMA_PRES HKO_LAT HKO_LON HKO_CAT HKO_WIND HKO_PRES NEWDELHI_LAT NEWDELHI_LON NEWDELHI_GRADE NEWDELHI_WIND NEWDELHI_PRES NEWDELHI_CI NEWDELHI_DP NEWDELHI_POCI REUNION_LAT REUNION_LON REUNION_TYPE REUNION_WIND REUNION_PRES REUNION_TNUM REUNION_CI REUNION_RMW REUNION_R34_NE REUNION_R34_SE REUNION_R34_SW REUNION_R34_NW REUNION_R50_NE REUNION_R50_SE REUNION_R50_SW REUNION_R50_NW REUNION_R64_NE REUNION_R64_SE REUNION_R64_SW REUNION_R64_NW BOM_LAT BOM_LON BOM_TYPE BOM_WIND BOM_PRES BOM_TNUM BOM_CI BOM_RMW BOM_R34_NE BOM_R34_SE BOM_R34_SW BOM_R34_NW BOM_R50_NE BOM_R50_SE BOM_R50_SW BOM_R50_NW BOM_R64_NE BOM_R64_SE BOM_R64_SW BOM_R64_NW BOM_ROCI BOM_POCI BOM_EYE BOM_POS_METHOD BOM_PRES_METHOD NADI_LAT NADI_LON NADI_CAT NADI_WIND NADI_PRES WELLINGTON_LAT WELLINGTON_LON WELLINGTON_WIND WELLINGTON_PRES DS824_LAT DS824_LON DS824_STAGE DS824_WIND DS824_PRES TD9636_LAT TD9636_LON TD9636_STAGE TD9636_WIND TD9636_PRES TD9635_LAT TD9635_LON TD9635_WIND TD9635_PRES TD9635_ROCI NEUMANN_LAT NEUMANN_LON NEUMANN_CLASS NEUMANN_WIND NEUMANN_PRES MLC_LAT MLC_LON MLC_CLASS MLC_WIND MLC_PRES USA_GUST BOM_GUST BOM_GUST_PER REUNION_GUST REUNION_GUST_PER USA_SEAHGT USA_SEARAD_NE USA_SEARAD_SE USA_SEARAD_SW USA_SEARAD_NW STORM_SPEED STORM_DIR
1879149N21087 1879 9 NI BB NOT_NAMED 1879-05-29 00:00:00 TS 20.6000 87.4000 main 43 33 _________O____ -1 20.6000 87.4000 TC 30 1 299
1879149N21087 1879 9 NI BB NOT_NAMED 1879-05-29 03:00:00 TS 20.6333 87.3400 main 33 20 _________PO___ -1 20.6500 87.3100 TC 30 20.6000 87.4000 1 2 297
1879149N21087 1879 9 NI BB NOT_NAMED 1879-05-29 06:00:00 TS 20.6807 87.2307 main 20 10 _________OP___ -1 20.7000 87.2000 TC 30 20.6517 87.2767 1 2 293
1879149N21087 1879 9 NI BB NOT_NAMED 1879-05-29 09:00:00 TS 20.7297 87.0983 main 10 0 _________PP___ -1 20.7500 87.0575 TC 30 20.7026 87.1526 1 3 291
1879149N21087 1879 9 NI BB NOT_NAMED 1879-05-29 12:00:00 TS 20.7761 86.9636 main 0 0 _________OP___ -1 20.8000 86.9000 TC 30 20.7523 87.0273 1 3 290
1879149N21087 1879 9 NI BB NOT_NAMED 1879-05-29 15:00:00 TS 20.8250 86.8250 main 0 0 _________PO___ -1 20.8500 86.7500 TC 30 20.8000 86.9000 1 3 290
1879149N21087 1879 9 NI BB NOT_NAMED 1879-05-29 18:00:00 TS 20.8729 86.6846 main 0 0 _________OP___ -1 20.9000 86.6000 TC 30 20.8458 86.7693 1 3 290
1879149N21087 1879 9 NI BB NOT_NAMED 1879-05-29 21:00:00 TS 20.9211 86.5474 main 0 0 _________PP___ -1 20.9499 86.4650 TC 30 20.8923 86.6299 1 3 290
1879149N21087 1879 9 NI BB NOT_NAMED 1879-05-30 00:00:00 TS 20.9713 86.3878 main 0 0 _________OP___ -1 21.0000 86.3000 TC 30 20.9427 86.4755 1 4 286
1879149N21087 1879 9 NI BB NOT_NAMED 1879-05-30 03:00:00 TS 21.0213 86.1787 main 0 0 _________PO___ -1 21.0426 86.0575 TC 30 21.0000 86.3000 1 4 285
1879149N21087 1879 9 NI BB NOT_NAMED 1879-05-30 06:00:00 TS 21.0819 85.9523 main 0 0 _________OP___ -1 21.1000 85.8000 TC 30 21.0637 86.1046 1 4 290
1879149N21087 1879 9 NI BB NOT_NAMED 1879-05-30 09:00:00 TS 21.1636 85.7474 main 0 0 _________PP___ -1 21.1924 85.6075 TC 30 21.1349 85.8874 1 4 294
1879149N21087 1879 9 NI BB NOT_NAMED 1879-05-30 12:00:00 TS 21.2568 85.5257 main 0 0 _________OP___ -1 21.3000 85.4000 TC 30 21.2137 85.6515 1 5 292
1879149N21087 1879 9 NI BB NOT_NAMED 1879-05-30 15:00:00 TS 21.3500 85.2538 main 0 0 _________PO___ -1 21.4001 85.1075 TC 30 21.3000 85.4000 1 5 291
1879149N21087 1879 9 NI BB NOT_NAMED 1879-05-30 18:00:00 TS 21.4440 84.9919 main 0 0 _________OP___ -1 21.5000 84.8000 TC 30 21.3881 85.1837 1 5 293
1879149N21087 1879 9 NI BB NOT_NAMED 1879-05-30 21:00:00 TS 21.5380 84.7671 main 0 0 _________PP___ -1 21.5921 84.5873 TC 30 21.4839 84.9469 1 5 293
1879149N21087 1879 9 NI BB NOT_NAMED 1879-05-31 00:00:00 TS 21.6439 84.4809 main 0 0 _________OP___ -1 21.7000 84.3000 TC 30 21.5878 84.6617 1 7 290
1879149N21087 1879 9 NI BB NOT_NAMED 1879-05-31 03:00:00 TS 21.7751 84.0476 main 0 0 _________PO___ -1 21.8502 83.7952 TC 30 21.7000 84.3000 1 9 287
1879149N21087 1879 9 NI BB NOT_NAMED 1879-05-31 06:00:00 TS 21.9111 83.5166 main 0 0 _________OP___ -1 22.0000 83.2000 TC 30 21.8223 83.8333 1 10 284
1879149N21087 1879 9 NI BB NOT_NAMED 1879-05-31 09:00:00 TS 22.0289 82.9700 main 0 0 _________PP___ -1 22.1073 82.6498 TC 30 21.9505 83.2902 1 11 282
1879149N21087 1879 9 NI BB NOT_NAMED 1879-05-31 12:00:00 TS 22.1392 82.4010 main 0 0 _________OP___ -1 22.2000 82.1000 TC 30 22.0783 82.7020 1 11 282
1879149N21087 1879 9 NI BB NOT_NAMED 1879-05-31 15:00:00 TS 22.2499 81.8287 main 0 0 _________PO___ -1 22.2997 81.5574 TC 30 22.2000 82.1000 1 10 282
1879149N21087 1879 9 NI BB NOT_NAMED 1879-05-31 18:00:00 TS 22.3493 81.2913 main 0 0 _________OP___ -1 22.4000 81.0000 TC 30 22.3113 81.5098 1 10 281
1879149N21087 1879 9 NI BB NOT_NAMED 1879-05-31 21:00:00 TS 22.4483 80.7238 main 0 0 _________PP___ -1 22.5005 80.4102 TC 30 22.4134 80.9329 1 10 280
1879149N21087 1879 9 NI BB NOT_NAMED 1879-06-01 00:00:00 TS 22.5392 80.1763 main 0 0 _________OP___ -1 22.6000 79.8000 TC 30 22.5089 80.3645 1 9 280
1879149N21087 1879 9 NI BB NOT_NAMED 1879-06-01 03:00:00 NR 22.6000 79.8000 main 0 __________O___ -1 TC 22.6000 79.8000 1 7 280

About IBTrACS Database

This database is a web-friendly format of International Best Track Archive for Climate Stewardship (IBTrACS), a global best track data archive curated by NOAA dating back to 1842.

Updated: 2021-12-03